Time;durP1;ratioP1;P1;durP2;ratioP2;P2;SDS_P1;SDS_P2;PMS_P1;PMS_P2;Temp;Humidity;BMP_temperature;BMP_pressure;BME280_temperature;BME280_humidity;BME280_pressure;Samples;Min_cycle;Max_cycle;Signal;HPM_P1;HPM_P2
2023/05/04 00:01:43;;;;;;;12.00;8.50;;;;;;;;;;4378668;32;317377;-91
2023/05/04 00:04:12;;;;;;;10.77;8.97;;;;;;;;;;4385295;32;337137;-91
2023/05/04 00:06:41;;;;;;;11.40;8.88;;;;;;;;;;4369713;32;317233;-92
2023/05/04 00:09:08;;;;;;;8.95;7.90;;;;;;;;;;4385203;32;317444;-92
2023/05/04 00:11:36;;;;;;;8.77;7.97;;;;;;;;;;4376564;32;316647;-91
2023/05/04 00:14:03;;;;;;;12.50;8.82;;;;;;;;;;4386543;32;316456;-92
2023/05/04 00:16:31;;;;;;;9.67;7.47;;;;;;;;;;4377366;32;317454;-92
2023/05/04 00:18:58;;;;;;;8.32;7.30;;;;;;;;;;4387542;32;316234;-92
2023/05/04 00:21:26;;;;;;;9.63;7.68;;;;;;;;;;4378953;32;316349;-92
2023/05/04 00:23:55;;;;;;;10.13;9.10;;;;;;;;;;4390896;32;316308;-91
2023/05/04 00:26:22;;;;;;;12.40;9.68;;;;;;;;;;4378441;32;317319;-92
2023/05/04 00:28:49;;;;;;;14.30;11.12;;;;;;;;;;4388237;32;317449;-91
2023/05/04 00:31:17;;;;;;;13.20;11.73;;;;;;;;;;4389361;32;318561;-92
2023/05/04 00:33:44;;;;;;;17.87;11.95;;;;;;;;;;4372120;32;318840;-92
2023/05/04 00:36:14;;;;;;;17.92;13.10;;;;;;;;;;4399619;32;318350;-91
2023/05/04 00:38:49;;;;;;;20.83;14.13;;;;;;;;;;4366489;32;318415;-92
2023/05/04 00:41:20;;;;;;;21.33;15.18;;;;;;;;;;4389112;32;318557;-91
2023/05/04 00:43:48;;;;;;;17.40;15.53;;;;;;;;;;4377401;32;390676;-91
2023/05/04 00:46:15;;;;;;;23.03;16.83;;;;;;;;;;4394357;32;318137;-91
2023/05/04 00:48:43;;;;;;;26.10;17.30;;;;;;;;;;4378434;32;318409;-92
2023/05/04 00:51:11;;;;;;;21.30;17.73;;;;;;;;;;4389258;32;317545;-91
2023/05/04 00:53:39;;;;;;;23.57;17.00;;;;;;;;;;4378204;32;318801;-91
2023/05/04 00:56:07;;;;;;;20.27;17.10;;;;;;;;;;4390056;32;318515;-91
2023/05/04 00:58:35;;;;;;;22.50;15.27;;;;;;;;;;4380015;32;318459;-91
2023/05/04 01:01:03;;;;;;;18.83;15.95;;;;;;;;;;4386065;32;323264;-91
2023/05/04 01:03:33;;;;;;;16.83;14.13;;;;;;;;;;4378332;32;318565;-92
2023/05/04 01:06:08;;;;;;;16.20;13.13;;;;;;;;;;4388676;32;318547;-92
2023/05/04 01:08:40;;;;;;;22.07;14.17;;;;;;;;;;4372885;32;318528;-91
2023/05/04 01:11:12;;;;;;;20.80;15.45;;;;;;;;;;4389091;32;318633;-92
2023/05/04 01:13:41;;;;;;;23.37;15.07;;;;;;;;;;4370891;32;318528;-92
2023/05/04 01:16:12;;;;;;;17.27;15.47;;;;;;;;;;4395903;32;318458;-93
2023/05/04 01:18:39;;;;;;;20.97;15.13;;;;;;;;;;4377829;32;318668;-91
2023/05/04 01:21:08;;;;;;;20.63;15.33;;;;;;;;;;4392556;32;318455;-92
2023/05/04 01:23:37;;;;;;;17.37;14.57;;;;;;;;;;4377647;32;318367;-91
2023/05/04 01:26:15;;;;;;;17.93;15.03;;;;;;;;;;4389658;32;318499;-91
2023/05/04 01:28:48;;;;;;;16.80;13.70;;;;;;;;;;4358703;32;318637;-92
2023/05/04 01:31:17;;;;;;;20.33;14.87;;;;;;;;;;4406343;32;318491;-93
2023/05/04 01:33:45;;;;;;;16.97;15.17;;;;;;;;;;4386067;32;318202;-93
2023/05/04 01:36:13;;;;;;;20.77;14.70;;;;;;;;;;4399443;32;318515;-93
2023/05/04 01:38:42;;;;;;;15.17;12.47;;;;;;;;;;4378907;32;318532;-92
2023/05/04 01:41:09;;;;;;;15.53;12.30;;;;;;;;;;4391476;32;318404;-92
2023/05/04 01:43:36;;;;;;;14.03;11.93;;;;;;;;;;4378770;32;318494;-92
2023/05/04 01:46:05;;;;;;;12.60;11.30;;;;;;;;;;4388897;32;318333;-91
2023/05/04 01:48:32;;;;;;;18.73;11.87;;;;;;;;;;4368710;32;318631;-92
2023/05/04 01:50:58;;;;;;;13.27;11.33;;;;;;;;;;4398247;32;347061;-92
2023/05/04 01:53:26;;;;;;;15.30;12.10;;;;;;;;;;4378807;32;317690;-92
2023/05/04 01:55:55;;;;;;;15.43;11.10;;;;;;;;;;4389546;32;318366;-93
2023/05/04 01:58:23;;;;;;;14.20;11.43;;;;;;;;;;4377617;32;318635;-93
2023/05/04 02:00:50;;;;;;;17.53;11.50;;;;;;;;;;4384482;32;318648;-93
2023/05/04 02:03:18;;;;;;;16.03;12.37;;;;;;;;;;4398106;32;319008;-92
2023/05/04 02:05:45;;;;;;;14.67;12.03;;;;;;;;;;4376311;32;318665;-93
2023/05/04 02:08:13;;;;;;;13.90;12.52;;;;;;;;;;4388925;32;318429;-93
2023/05/04 02:10:41;;;;;;;16.75;12.75;;;;;;;;;;4369943;32;349465;-93
2023/05/04 02:13:10;;;;;;;17.73;12.40;;;;;;;;;;4387767;32;318491;-93
2023/05/04 02:15:37;;;;;;;16.47;11.93;;;;;;;;;;4378212;32;318426;-93
2023/05/04 02:18:04;;;;;;;13.40;11.90;;;;;;;;;;4387250;32;318505;-94
2023/05/04 02:20:32;;;;;;;17.00;12.63;;;;;;;;;;4375557;32;318573;-92
2023/05/04 02:22:59;;;;;;;16.90;12.40;;;;;;;;;;4385226;32;318958;-93
2023/05/04 02:25:27;;;;;;;16.00;12.23;;;;;;;;;;4378816;32;318438;-94
2023/05/04 02:27:54;;;;;;;18.00;12.13;;;;;;;;;;4391537;32;318466;-92
2023/05/04 02:30:25;;;;;;;15.90;12.03;;;;;;;;;;4378613;32;318265;-93
2023/05/04 02:32:54;;;;;;;17.07;14.30;;;;;;;;;;4383246;32;318638;-92
2023/05/04 02:35:21;;;;;;;20.63;13.97;;;;;;;;;;4398482;32;318444;-93
2023/05/04 02:37:49;;;;;;;16.10;13.60;;;;;;;;;;4372472;32;420710;-93
2023/05/04 02:40:17;;;;;;;20.60;14.43;;;;;;;;;;4387749;32;318356;-93
2023/05/04 02:42:44;;;;;;;17.00;12.60;;;;;;;;;;4371219;32;318546;-92
2023/05/04 02:45:12;;;;;;;16.20;13.93;;;;;;;;;;4385622;32;318613;-93
2023/05/04 02:47:40;;;;;;;17.13;12.67;;;;;;;;;;4377276;32;318490;-93
2023/05/04 02:50:08;;;;;;;14.87;12.27;;;;;;;;;;4381281;32;318870;-93
2023/05/04 02:52:37;;;;;;;15.47;11.73;;;;;;;;;;4381514;32;318704;-92
2023/05/04 02:55:05;;;;;;;17.98;10.80;;;;;;;;;;4386596;32;318414;-93
2023/05/04 02:57:32;;;;;;;17.00;11.55;;;;;;;;;;4376796;32;318410;-92
2023/05/04 02:59:59;;;;;;;13.83;11.13;;;;;;;;;;4394224;32;318350;-92
2023/05/04 03:02:27;;;;;;;14.40;10.80;;;;;;;;;;4364005;32;318690;-93
2023/05/04 03:04:58;;;;;;;16.60;11.40;;;;;;;;;;4386462;32;318405;-92
2023/05/04 03:07:25;;;;;;;14.90;10.87;;;;;;;;;;4376331;32;324699;-92
2023/05/04 03:09:53;;;;;;;21.67;12.20;;;;;;;;;;4386963;32;317673;-91
2023/05/04 03:12:20;;;;;;;14.67;10.47;;;;;;;;;;4386077;32;318446;-92
2023/05/04 03:14:47;;;;;;;11.50;10.30;;;;;;;;;;4357959;32;390413;-91
2023/05/04 03:17:14;;;;;;;14.67;11.63;;;;;;;;;;4385296;32;318560;-92
2023/05/04 03:19:42;;;;;;;15.47;11.67;;;;;;;;;;4371224;32;318416;-92
2023/05/04 03:22:10;;;;;;;13.60;11.03;;;;;;;;;;4386547;32;318472;-94
2023/05/04 03:24:38;;;;;;;12.57;11.30;;;;;;;;;;4376930;32;318476;-93
2023/05/04 03:27:05;;;;;;;11.40;10.30;;;;;;;;;;4386051;32;318423;-91
2023/05/04 03:29:35;;;;;;;15.07;10.53;;;;;;;;;;4374742;32;318419;-94
2023/05/04 03:32:03;;;;;;;13.13;11.03;;;;;;;;;;4367352;32;412448;-92
2023/05/04 03:34:30;;;;;;;13.87;10.70;;;;;;;;;;4386516;32;318219;-93
2023/05/04 03:36:59;;;;;;;17.60;11.80;;;;;;;;;;4370239;32;318602;-94
2023/05/04 03:39:28;;;;;;;12.90;10.70;;;;;;;;;;4385176;32;318417;-92
2023/05/04 03:41:56;;;;;;;16.87;11.40;;;;;;;;;;4374987;32;320922;-92
2023/05/04 03:44:24;;;;;;;15.27;12.03;;;;;;;;;;4386404;32;318673;-92
2023/05/04 03:46:53;;;;;;;13.27;11.83;;;;;;;;;;4370763;32;318635;-93
2023/05/04 03:49:21;;;;;;;15.65;12.68;;;;;;;;;;4388450;32;326467;-92
2023/05/04 03:51:49;;;;;;;14.73;13.07;;;;;;;;;;4370712;32;318689;-92
2023/05/04 03:54:17;;;;;;;14.40;12.30;;;;;;;;;;4403305;32;317063;-93
2023/05/04 03:56:47;;;;;;;17.27;12.43;;;;;;;;;;4396474;32;317346;-92
2023/05/04 03:59:16;;;;;;;17.70;12.50;;;;;;;;;;4398120;32;318446;-93
2023/05/04 04:01:43;;;;;;;13.37;12.00;;;;;;;;;;4366648;32;318608;-92
2023/05/04 04:04:13;;;;;;;14.40;12.33;;;;;;;;;;4389936;32;318836;-92
2023/05/04 04:06:40;;;;;;;14.83;13.27;;;;;;;;;;4375690;32;318757;-93
2023/05/04 04:09:08;;;;;;;17.10;13.07;;;;;;;;;;4384283;32;318588;-93
2023/05/04 04:11:36;;;;;;;14.43;12.53;;;;;;;;;;4397261;32;318399;-93
2023/05/04 04:14:05;;;;;;;14.43;12.40;;;;;;;;;;4378527;32;318509;-92
2023/05/04 04:16:32;;;;;;;14.87;13.20;;;;;;;;;;4377075;32;318235;-93
2023/05/04 04:19:00;;;;;;;14.33;12.37;;;;;;;;;;4379028;32;318489;-92
2023/05/04 04:21:28;;;;;;;14.80;12.70;;;;;;;;;;4390412;32;318297;-93
2023/05/04 04:23:55;;;;;;;18.93;12.93;;;;;;;;;;4376262;32;346280;-92
2023/05/04 04:26:23;;;;;;;16.10;14.17;;;;;;;;;;4389648;32;318446;-91
2023/05/04 04:28:50;;;;;;;17.80;14.93;;;;;;;;;;4378476;32;318647;-92
2023/05/04 04:31:20;;;;;;;19.70;13.57;;;;;;;;;;4390273;32;318531;-92
2023/05/04 04:33:47;;;;;;;16.37;13.93;;;;;;;;;;4377462;32;317444;-92
2023/05/04 04:36:15;;;;;;;16.80;13.90;;;;;;;;;;4387353;32;318477;-91
2023/05/04 04:38:45;;;;;;;21.03;15.00;;;;;;;;;;4378831;32;318414;-91
2023/05/04 04:41:12;;;;;;;22.37;16.07;;;;;;;;;;4389879;32;318655;-92
2023/05/04 04:43:40;;;;;;;21.60;16.37;;;;;;;;;;4374216;32;329050;-92
2023/05/04 04:46:08;;;;;;;17.63;15.83;;;;;;;;;;4390069;32;318946;-92
2023/05/04 04:48:48;;;;;;;18.03;16.03;;;;;;;;;;4388539;32;319004;-92
2023/05/04 04:51:16;;;;;;;18.63;16.33;;;;;;;;;;4376176;32;420721;-92
2023/05/04 04:53:46;;;;;;;18.00;15.60;;;;;;;;;;4377365;32;318606;-91
2023/05/04 04:56:14;;;;;;;17.33;15.53;;;;;;;;;;4387793;32;318371;-92
2023/05/04 04:58:42;;;;;;;19.93;15.87;;;;;;;;;;4370081;32;318462;-91
2023/05/04 05:01:16;;;;;;;16.23;14.63;;;;;;;;;;4388963;32;318921;-91
2023/05/04 05:03:54;;;;;;;17.10;14.43;;;;;;;;;;4378921;32;318625;-95
2023/05/04 05:06:24;;;;;;;16.73;15.23;;;;;;;;;;4401206;32;317864;-93
2023/05/04 05:08:53;;;;;;;18.07;16.37;;;;;;;;;;4383096;32;318591;-92
2023/05/04 05:11:24;;;;;;;17.50;15.57;;;;;;;;;;4394741;32;317376;-92
2023/05/04 05:13:52;;;;;;;17.40;15.57;;;;;;;;;;4375272;32;318236;-93
2023/05/04 05:16:23;;;;;;;17.57;15.50;;;;;;;;;;4400917;32;318584;-92
2023/05/04 05:18:54;;;;;;;17.95;16.25;;;;;;;;;;4381654;32;318671;-94
2023/05/04 05:21:27;;;;;;;18.30;16.40;;;;;;;;;;4389979;32;317340;-93
2023/05/04 05:23:56;;;;;;;19.07;17.17;;;;;;;;;;4375915;32;318683;-93
2023/05/04 05:26:29;;;;;;;19.50;17.43;;;;;;;;;;4397788;32;318395;-94
2023/05/04 05:29:01;;;;;;;18.43;16.37;;;;;;;;;;4386310;32;318463;-91
2023/05/04 05:34:15;;;;;;;22.20;17.77;;;;;;;;;;4364757;32;390258;-92
2023/05/04 05:36:45;;;;;;;17.90;16.03;;;;;;;;;;4385920;32;318425;-93
2023/05/04 05:39:16;;;;;;;21.13;17.17;;;;;;;;;;4390264;32;318559;-93
2023/05/04 05:41:48;;;;;;;20.77;17.10;;;;;;;;;;4382246;32;318315;-93
2023/05/04 05:44:27;;;;;;;18.70;16.80;;;;;;;;;;4396403;32;318249;-93
2023/05/04 05:46:55;;;;;;;19.90;17.87;;;;;;;;;;4375235;32;318606;-92
2023/05/04 05:49:26;;;;;;;25.98;19.42;;;;;;;;;;4377548;32;324478;-93
2023/05/04 05:51:54;;;;;;;21.20;18.93;;;;;;;;;;4353238;32;318374;-93
2023/05/04 05:54:22;;;;;;;24.20;21.63;;;;;;;;;;4385108;32;318493;-92
2023/05/04 05:56:49;;;;;;;22.13;19.90;;;;;;;;;;4383918;32;318388;-92
2023/05/04 05:59:16;;;;;;;27.47;23.87;;;;;;;;;;4390638;32;318687;-92
2023/05/04 06:01:45;;;;;;;33.70;28.27;;;;;;;;;;4373777;32;318559;-92
2023/05/04 06:04:12;;;;;;;37.08;29.58;;;;;;;;;;4400160;32;318626;-92
2023/05/04 06:06:41;;;;;;;95.07;61.90;;;;;;;;;;4376510;32;338411;-92
2023/05/04 06:09:08;;;;;;;98.97;65.30;;;;;;;;;;4394346;32;318957;-92
2023/05/04 06:11:35;;;;;;;28.77;25.43;;;;;;;;;;4388347;32;318537;-93
2023/05/04 06:14:03;;;;;;;21.90;19.77;;;;;;;;;;4379410;32;318515;-92
2023/05/04 06:16:35;;;;;;;28.60;23.07;;;;;;;;;;4388908;32;318347;-94
2023/05/04 06:19:04;;;;;;;28.75;22.70;;;;;;;;;;4388513;32;318122;-92
2023/05/04 06:21:32;;;;;;;25.37;22.30;;;;;;;;;;4404216;32;317209;-93
2023/05/04 06:24:01;;;;;;;26.50;22.80;;;;;;;;;;4390691;32;318452;-91
2023/05/04 06:26:28;;;;;;;25.83;20.83;;;;;;;;;;4388048;32;318190;-92
2023/05/04 06:28:55;;;;;;;22.48;20.27;;;;;;;;;;4374574;32;318550;-92
2023/05/04 06:31:23;;;;;;;26.07;22.80;;;;;;;;;;4399817;32;318648;-92
2023/05/04 06:33:50;;;;;;;27.92;23.27;;;;;;;;;;4379662;32;318400;-93
2023/05/04 06:36:17;;;;;;;30.27;24.37;;;;;;;;;;4370539;32;318464;-93
2023/05/04 06:38:50;;;;;;;26.97;23.90;;;;;;;;;;4383541;32;318651;-92
2023/05/04 06:41:20;;;;;;;33.43;28.97;;;;;;;;;;4387133;32;318639;-92
2023/05/04 06:43:47;;;;;;;34.93;28.27;;;;;;;;;;4374524;32;318409;-93
2023/05/04 06:46:13;;;;;;;33.07;29.50;;;;;;;;;;4386418;32;317265;-92
2023/05/04 06:48:43;;;;;;;38.83;31.57;;;;;;;;;;4369744;32;318525;-92
2023/05/04 06:51:12;;;;;;;38.03;31.20;;;;;;;;;;4388172;32;318406;-93
2023/05/04 06:53:39;;;;;;;32.70;29.13;;;;;;;;;;4376592;32;318511;-92
2023/05/04 06:56:08;;;;;;;42.33;28.90;;;;;;;;;;4392044;32;318426;-94
2023/05/04 06:58:40;;;;;;;35.60;28.67;;;;;;;;;;4398597;32;318369;-93
2023/05/04 07:01:11;;;;;;;34.00;26.77;;;;;;;;;;4375554;32;390463;-93
2023/05/04 07:03:41;;;;;;;30.83;26.27;;;;;;;;;;4374269;32;318352;-93
2023/05/04 07:06:09;;;;;;;28.57;23.80;;;;;;;;;;4370222;32;318473;-93
2023/05/04 07:08:36;;;;;;;27.75;24.73;;;;;;;;;;4399653;32;317620;-93
2023/05/04 07:11:04;;;;;;;28.87;24.25;;;;;;;;;;4363447;32;420226;-94
2023/05/04 07:13:31;;;;;;;22.58;19.50;;;;;;;;;;4381667;32;318485;-94
2023/05/04 07:16:00;;;;;;;18.07;16.20;;;;;;;;;;4368463;32;318620;-95
2023/05/04 07:18:27;;;;;;;21.87;17.70;;;;;;;;;;4387658;32;318402;-92
2023/05/04 07:20:54;;;;;;;18.27;16.27;;;;;;;;;;4376002;32;359225;-93
2023/05/04 07:23:21;;;;;;;19.43;17.50;;;;;;;;;;4392470;32;318375;-91
2023/05/04 07:25:48;;;;;;;18.40;16.60;;;;;;;;;;4376900;32;318478;-93
2023/05/04 07:28:16;;;;;;;20.03;17.93;;;;;;;;;;4388770;32;318389;-93
2023/05/04 07:30:43;;;;;;;19.93;16.57;;;;;;;;;;4377445;32;318647;-93
2023/05/04 07:33:11;;;;;;;18.97;15.20;;;;;;;;;;4388448;32;318463;-93
2023/05/04 07:35:40;;;;;;;17.07;15.20;;;;;;;;;;4371353;32;338479;-93
2023/05/04 07:38:07;;;;;;;16.70;15.00;;;;;;;;;;4383817;32;318337;-93
2023/05/04 07:40:36;;;;;;;18.70;16.70;;;;;;;;;;4387780;32;318596;-93
2023/05/04 07:43:04;;;;;;;16.57;14.97;;;;;;;;;;4372495;32;390080;-94
2023/05/04 07:45:31;;;;;;;21.08;17.48;;;;;;;;;;4387336;32;318490;-93
2023/05/04 07:47:59;;;;;;;18.90;16.93;;;;;;;;;;4376966;32;318544;-92
2023/05/04 07:50:29;;;;;;;16.77;15.07;;;;;;;;;;4385480;32;318363;-91
2023/05/04 07:52:56;;;;;;;15.73;14.00;;;;;;;;;;4375193;32;354684;-92
2023/05/04 07:55:25;;;;;;;16.67;14.98;;;;;;;;;;4385667;32;318975;-92
2023/05/04 07:57:51;;;;;;;20.57;15.73;;;;;;;;;;4350864;32;318424;-92
2023/05/04 08:00:20;;;;;;;16.95;15.07;;;;;;;;;;4397959;32;318686;-91
2023/05/04 08:02:47;;;;;;;16.70;15.00;;;;;;;;;;4373794;32;318947;-91
2023/05/04 08:05:14;;;;;;;16.27;14.50;;;;;;;;;;4387256;32;318489;-92
2023/05/04 08:07:47;;;;;;;13.07;11.77;;;;;;;;;;4377104;32;318410;-91
2023/05/04 08:10:15;;;;;;;15.43;13.93;;;;;;;;;;4387570;32;318280;-93
2023/05/04 08:12:42;;;;;;;15.80;14.07;;;;;;;;;;4377703;32;359116;-93
2023/05/04 08:15:10;;;;;;;19.15;15.25;;;;;;;;;;4387755;32;318514;-92
2023/05/04 08:17:38;;;;;;;16.05;14.30;;;;;;;;;;4386149;32;319044;-92
2023/05/04 08:20:06;;;;;;;25.67;18.48;;;;;;;;;;4367631;32;418492;-94
2023/05/04 08:22:44;;;;;;;14.27;12.93;;;;;;;;;;4399025;32;318415;-93
2023/05/04 08:25:13;;;;;;;12.85;11.65;;;;;;;;;;4371424;32;420825;-92
2023/05/04 08:27:40;;;;;;;13.30;12.02;;;;;;;;;;4382357;32;318746;-93
2023/05/04 08:30:11;;;;;;;12.65;11.35;;;;;;;;;;4389813;32;318510;-94
2023/05/04 08:32:41;;;;;;;17.95;15.55;;;;;;;;;;4384283;32;318386;-94
2023/05/04 08:35:09;;;;;;;17.25;14.23;;;;;;;;;;4389230;32;318565;-93
2023/05/04 08:37:37;;;;;;;17.80;15.90;;;;;;;;;;4389124;32;318345;-93
2023/05/04 08:40:04;;;;;;;18.23;16.33;;;;;;;;;;4376888;32;391017;-93
2023/05/04 08:42:33;;;;;;;17.48;15.57;;;;;;;;;;4388807;32;318588;-92
2023/05/04 08:45:04;;;;;;;15.25;13.65;;;;;;;;;;4388989;32;318010;-93
2023/05/04 08:47:31;;;;;;;18.33;15.18;;;;;;;;;;4403419;32;317079;-93
2023/05/04 08:50:00;;;;;;;16.12;13.85;;;;;;;;;;4384718;32;318262;-93
2023/05/04 08:52:28;;;;;;;15.50;13.90;;;;;;;;;;4387204;32;318460;-93
2023/05/04 08:54:58;;;;;;;18.60;16.52;;;;;;;;;;4378654;32;318667;-93
2023/05/04 08:57:26;;;;;;;24.33;14.90;;;;;;;;;;4391112;32;318512;-91
2023/05/04 09:00:02;;;;;;;13.38;12.07;;;;;;;;;;4377489;32;318613;-91
2023/05/04 09:02:31;;;;;;;12.63;10.45;;;;;;;;;;4393881;32;318766;-93
2023/05/04 09:05:02;;;;;;;13.52;12.13;;;;;;;;;;4376671;32;318563;-93
2023/05/04 09:07:29;;;;;;;13.35;11.98;;;;;;;;;;4388531;32;346723;-92
2023/05/04 09:10:01;;;;;;;13.25;11.50;;;;;;;;;;4378153;32;318564;-93
2023/05/04 09:12:30;;;;;;;13.18;9.30;;;;;;;;;;4392018;32;318443;-93
2023/05/04 09:15:01;;;;;;;14.47;10.27;;;;;;;;;;4379203;32;317342;-93
2023/05/04 09:17:36;;;;;;;14.77;12.40;;;;;;;;;;4389952;32;318467;-92
2023/05/04 09:20:04;;;;;;;11.60;9.38;;;;;;;;;;4376247;32;318756;-92
2023/05/04 09:22:31;;;;;;;9.48;8.57;;;;;;;;;;4388678;32;317386;-92
2023/05/04 09:25:12;;;;;;;8.02;7.32;;;;;;;;;;4378413;32;316438;-91
2023/05/04 09:27:45;;;;;;;10.10;7.10;;;;;;;;;;4373335;32;316714;-91
2023/05/04 09:30:20;;;;;;;12.70;8.57;;;;;;;;;;4395271;32;316318;-89
2023/05/04 09:32:48;;;;;;;7.47;6.78;;;;;;;;;;4378639;32;318170;-91
2023/05/04 09:35:20;;;;;;;8.48;7.68;;;;;;;;;;4391307;32;316198;-91
2023/05/04 09:37:47;;;;;;;9.63;8.73;;;;;;;;;;4377450;32;353781;-92
2023/05/04 09:40:15;;;;;;;11.43;10.23;;;;;;;;;;4382820;32;316981;-91
2023/05/04 09:42:42;;;;;;;9.73;8.18;;;;;;;;;;4369464;32;318574;-91
2023/05/04 09:45:11;;;;;;;11.43;9.55;;;;;;;;;;4386783;32;315159;-92
2023/05/04 09:47:41;;;;;;;13.05;10.13;;;;;;;;;;4387970;32;355111;-91
2023/05/04 09:50:13;;;;;;;15.70;8.43;;;;;;;;;;4375243;32;416951;-91
2023/05/04 09:52:42;;;;;;;8.85;8.05;;;;;;;;;;4375567;32;318183;-92
2023/05/04 09:55:12;;;;;;;12.52;8.13;;;;;;;;;;4385225;32;316467;-92
2023/05/04 09:57:45;;;;;;;9.55;8.65;;;;;;;;;;4388788;32;317357;-90
2023/05/04 10:00:16;;;;;;;11.50;7.57;;;;;;;;;;4394902;32;315147;-91
2023/05/04 10:02:46;;;;;;;7.43;6.72;;;;;;;;;;4382715;32;349134;-89
2023/05/04 10:05:20;;;;;;;7.45;6.40;;;;;;;;;;4391221;32;316377;-91
2023/05/04 10:07:47;;;;;;;9.93;7.97;;;;;;;;;;4386137;32;316310;-92
2023/05/04 10:10:16;;;;;;;9.35;7.68;;;;;;;;;;4389584;32;316680;-92
2023/05/04 10:12:44;;;;;;;7.78;6.90;;;;;;;;;;4377367;32;316170;-93
2023/05/04 10:15:15;;;;;;;8.82;7.47;;;;;;;;;;4390337;32;316286;-90
2023/05/04 10:18:09;;;;;;;9.30;8.30;;;;;;;;;;4378127;32;373261;-93
2023/05/04 10:20:54;;;;;;;9.52;8.55;;;;;;;;;;4376936;32;315503;-92
2023/05/04 10:23:47;;;;;;;11.10;8.80;;;;;;;;;;4376566;32;417198;-92
2023/05/04 10:26:50;;;;;;;9.32;8.32;;;;;;;;;;4378666;32;418148;-92
2023/05/04 10:29:22;;;;;;;12.18;8.73;;;;;;;;;;4369540;32;417472;-91
2023/05/04 10:31:51;;;;;;;9.70;8.80;;;;;;;;;;4378824;32;317401;-92
2023/05/04 10:34:29;;;;;;;13.10;9.27;;;;;;;;;;4388758;32;316367;-89
2023/05/04 10:36:57;;;;;;;12.63;9.30;;;;;;;;;;4378687;32;317337;-90
2023/05/04 10:39:29;;;;;;;20.75;10.90;;;;;;;;;;4392871;32;316195;-90
2023/05/04 10:42:05;;;;;;;11.48;9.02;;;;;;;;;;4376355;32;318390;-89
2023/05/04 10:44:36;;;;;;;10.57;9.10;;;;;;;;;;4388613;32;318708;-89
2023/05/04 10:47:05;;;;;;;10.35;7.90;;;;;;;;;;4377546;32;317742;-92
2023/05/04 10:49:34;;;;;;;12.23;8.15;;;;;;;;;;4388899;32;316184;-92
2023/05/04 10:52:14;;;;;;;10.13;8.07;;;;;;;;;;4378320;32;317249;-92
2023/05/04 10:54:43;;;;;;;9.50;7.72;;;;;;;;;;4379388;32;317569;-89
2023/05/04 10:57:11;;;;;;;11.95;9.75;;;;;;;;;;4388331;32;316457;-89
2023/05/04 10:59:40;;;;;;;10.52;9.45;;;;;;;;;;4389142;32;317446;-92
2023/05/04 11:02:07;;;;;;;20.98;16.48;;;;;;;;;;4386441;32;317578;-92
2023/05/04 11:04:37;;;;;;;13.45;10.73;;;;;;;;;;4388595;32;318469;-91
2023/05/04 11:07:07;;;;;;;11.77;9.32;;;;;;;;;;4372889;32;420388;-91
2023/05/04 11:09:38;;;;;;;11.07;8.25;;;;;;;;;;4400267;32;317105;-91
2023/05/04 11:12:09;;;;;;;10.40;7.68;;;;;;;;;;4379131;32;413293;-92
2023/05/04 11:14:41;;;;;;;9.40;8.38;;;;;;;;;;4389627;32;348937;-91
2023/05/04 11:17:08;;;;;;;10.18;7.18;;;;;;;;;;4374882;32;416050;-89
2023/05/04 11:19:48;;;;;;;15.73;8.60;;;;;;;;;;4387284;32;317693;-91
2023/05/04 11:22:15;;;;;;;9.07;7.97;;;;;;;;;;4363811;32;417269;-91
2023/05/04 11:24:44;;;;;;;11.43;7.57;;;;;;;;;;4371398;32;316411;-92
2023/05/04 11:27:22;;;;;;;8.32;7.53;;;;;;;;;;4387049;32;317428;-91
2023/05/04 11:29:57;;;;;;;9.10;7.10;;;;;;;;;;4378653;32;316396;-90
2023/05/04 11:32:34;;;;;;;9.82;6.70;;;;;;;;;;4387658;32;316407;-92
2023/05/04 11:35:03;;;;;;;6.87;6.22;;;;;;;;;;4376196;32;331936;-90
2023/05/04 11:37:30;;;;;;;11.90;7.53;;;;;;;;;;4384823;32;322393;-91
2023/05/04 11:39:58;;;;;;;8.65;7.00;;;;;;;;;;4377606;32;317530;-91
2023/05/04 11:42:26;;;;;;;6.82;6.10;;;;;;;;;;4380233;32;316628;-92
2023/05/04 11:44:53;;;;;;;6.90;6.20;;;;;;;;;;4384818;32;316610;-92
2023/05/04 11:47:22;;;;;;;7.53;6.72;;;;;;;;;;4387684;32;316670;-92
2023/05/04 11:49:49;;;;;;;8.73;6.18;;;;;;;;;;4376806;32;316678;-92
2023/05/04 11:52:22;;;;;;;11.77;7.85;;;;;;;;;;4387986;32;316606;-92
2023/05/04 11:54:55;;;;;;;7.77;7.07;;;;;;;;;;4376201;32;317705;-91
2023/05/04 11:57:22;;;;;;;6.20;5.60;;;;;;;;;;4387628;32;316489;-91
2023/05/04 11:59:50;;;;;;;5.47;4.90;;;;;;;;;;4377928;32;316356;-90
2023/05/04 12:02:17;;;;;;;7.03;5.40;;;;;;;;;;4386695;32;316558;-92
2023/05/04 12:04:45;;;;;;;9.00;8.10;;;;;;;;;;4377638;32;316679;-92
2023/05/04 12:07:13;;;;;;;7.18;6.12;;;;;;;;;;4386995;32;316849;-91
2023/05/04 12:09:49;;;;;;;6.25;5.75;;;;;;;;;;4377224;32;316526;-91
2023/05/04 12:12:19;;;;;;;11.90;5.87;;;;;;;;;;4390308;32;316311;-91
2023/05/04 12:14:52;;;;;;;12.63;6.13;;;;;;;;;;4372033;32;355541;-91
2023/05/04 12:17:20;;;;;;;6.93;6.30;;;;;;;;;;4388612;32;317809;-91
2023/05/04 12:19:48;;;;;;;8.40;6.07;;;;;;;;;;4379873;32;331337;-91
2023/05/04 12:22:14;;;;;;;6.30;5.35;;;;;;;;;;4394632;32;316560;-91
2023/05/04 12:24:42;;;;;;;9.93;5.35;;;;;;;;;;4385045;32;316459;-91
2023/05/04 12:27:14;;;;;;;6.65;5.57;;;;;;;;;;4391140;32;316572;-88
2023/05/04 12:29:41;;;;;;;5.22;4.72;;;;;;;;;;4377170;32;317884;-91
2023/05/04 12:32:08;;;;;;;6.28;4.93;;;;;;;;;;4389835;32;316437;-92
2023/05/04 12:34:37;;;;;;;5.50;5.00;;;;;;;;;;4387477;32;316552;-91
2023/05/04 12:37:04;;;;;;;10.88;5.40;;;;;;;;;;4379246;32;316603;-90
2023/05/04 12:39:33;;;;;;;16.90;7.32;;;;;;;;;;4389349;32;316196;-91
2023/05/04 12:41:59;;;;;;;6.37;4.93;;;;;;;;;;4380539;32;317928;-90
2023/05/04 12:44:28;;;;;;;6.25;5.18;;;;;;;;;;4376414;32;316428;-90
2023/05/04 12:46:55;;;;;;;8.02;5.03;;;;;;;;;;4379128;32;316626;-91
2023/05/04 12:49:23;;;;;;;8.75;5.45;;;;;;;;;;4389339;32;316279;-90
2023/05/04 12:51:51;;;;;;;4.90;4.40;;;;;;;;;;4380100;32;316571;-91
2023/05/04 12:54:18;;;;;;;6.80;5.70;;;;;;;;;;4389008;32;316588;-91
2023/05/04 12:56:46;;;;;;;7.60;5.43;;;;;;;;;;4380084;32;316592;-91
2023/05/04 12:59:14;;;;;;;11.12;4.80;;;;;;;;;;4387319;32;316431;-90
2023/05/04 13:01:43;;;;;;;7.80;5.47;;;;;;;;;;4379227;32;317714;-91
2023/05/04 13:04:10;;;;;;;8.73;6.03;;;;;;;;;;4390183;32;316768;-90
2023/05/04 13:06:37;;;;;;;6.40;5.18;;;;;;;;;;4388875;32;316612;-90
2023/05/04 13:09:04;;;;;;;12.15;5.03;;;;;;;;;;4362783;32;388200;-90
2023/05/04 13:11:32;;;;;;;6.15;5.55;;;;;;;;;;4374701;32;317747;-90
2023/05/04 13:13:59;;;;;;;9.63;5.53;;;;;;;;;;4377603;32;355507;-91
2023/05/04 13:16:29;;;;;;;11.85;5.93;;;;;;;;;;4387407;32;316399;-90
2023/05/04 13:18:58;;;;;;;6.20;5.60;;;;;;;;;;4372519;32;355719;-90
2023/05/04 13:21:24;;;;;;;8.20;5.25;;;;;;;;;;4387903;32;316440;-90
2023/05/04 13:23:52;;;;;;;10.25;5.47;;;;;;;;;;4376712;32;316767;-90
2023/05/04 13:26:20;;;;;;;11.23;5.55;;;;;;;;;;4394423;32;317808;-88
2023/05/04 13:28:47;;;;;;;8.15;6.20;;;;;;;;;;4390753;32;415710;-91
2023/05/04 13:31:14;;;;;;;7.93;6.28;;;;;;;;;;4398093;32;316080;-91
2023/05/04 13:33:41;;;;;;;7.15;5.28;;;;;;;;;;4362471;32;316414;-91
2023/05/04 13:36:10;;;;;;;12.68;5.60;;;;;;;;;;4395637;32;316482;-90
2023/05/04 13:38:37;;;;;;;17.15;5.95;;;;;;;;;;4383825;32;317462;-90
2023/05/04 13:41:04;;;;;;;7.07;6.37;;;;;;;;;;4384848;32;317588;-91
2023/05/04 13:43:31;;;;;;;8.32;6.62;;;;;;;;;;4365096;32;316475;-90
2023/05/04 13:46:03;;;;;;;7.45;6.60;;;;;;;;;;4388885;32;316450;-90
2023/05/04 13:48:31;;;;;;;6.13;5.27;;;;;;;;;;4376322;32;352195;-90
2023/05/04 13:50:58;;;;;;;7.82;4.30;;;;;;;;;;4389238;32;316696;-90
2023/05/04 13:53:38;;;;;;;9.40;6.60;;;;;;;;;;4376067;32;316422;-90
2023/05/04 13:56:06;;;;;;;14.75;8.02;;;;;;;;;;4387761;32;316519;-89
2023/05/04 13:58:33;;;;;;;8.32;7.47;;;;;;;;;;4377839;32;317523;-91
2023/05/04 14:01:00;;;;;;;9.70;7.72;;;;;;;;;;4389786;32;316515;-90
2023/05/04 14:03:27;;;;;;;20.48;6.90;;;;;;;;;;4378763;32;342761;-91
2023/05/04 14:05:55;;;;;;;10.15;7.15;;;;;;;;;;4388536;32;317548;-91
2023/05/04 14:08:21;;;;;;;13.10;7.50;;;;;;;;;;4376594;32;343379;-91
2023/05/04 14:10:53;;;;;;;12.45;6.68;;;;;;;;;;4388367;32;317902;-90
2023/05/04 14:13:20;;;;;;;7.78;6.75;;;;;;;;;;4372608;32;350926;-91
2023/05/04 14:15:48;;;;;;;11.70;6.12;;;;;;;;;;4387614;32;316326;-90
2023/05/04 14:18:15;;;;;;;6.55;5.25;;;;;;;;;;4387079;32;317724;-91
2023/05/04 14:20:42;;;;;;;8.63;5.95;;;;;;;;;;4375668;32;316820;-91
2023/05/04 14:23:09;;;;;;;12.65;8.55;;;;;;;;;;4387467;32;316448;-91
2023/05/04 14:25:37;;;;;;;12.63;9.50;;;;;;;;;;4377361;32;317701;-91